Weather at Saginaw Seaplane Base

Public forecast

Using degrees Fahrenheit for public forecast. Weather courtesy of forecast.io.

Closest aviation weather report (METAR) to Saginaw Seaplane Base

Closest report is Kake Airport, 9.3 nm (17.2 km) ENE. Retrieved 2020/09/20 22:56 UTC (9 minutes ago):

PAFE 202256Z AUTO 11006KT 10SM -RA SCT045 OVC060 12/08 A2984 RMK AO2 SLP118 P0000 T01220078

Closest aviation forecast (TAF) to Saginaw Seaplane Base

Closest forecast is Petersburg James A Johnson Airport, 40.2 nm (74.4 km) E. Retrieved 2020/09/20 18:24 UTC (5 hours ago):

TAF PAPG 201722Z 2018/2118 VRB03KT P6SM SCT030 BKN060 FM210000 09004KT P6SM -SHRA SCT025 OVC035 FM210300 10004KT 4SM -SHRA BR SCT015 OVC030 FM210900 12002KT 6SM -SHRA BKN015 OVC030 AMD LTD TO CLD VIS AND WIND 2106/2115